Terminal Aerodrome Forecast
Issued by NWS Goodland, KS

Home | Current Version | Previous Version | Text Only | Print | Product List | Glossary On
Versions: 1 2 3 4 5 6 7 8 9 10 11 12 13 14 15 16 17
000
FTUS43 KGLD 101400 AAA
TAFGLD
TAF AMD
KGLD 101404Z 1014/1112 17014G24KT P6SM OVC008
      TEMPO 1014/1015 SCT008 BKN015
     FM101500 17012G20KT P6SM FEW250
     FM110300 17011KT P6SM FEW110 SCT250=

USA.gov is the U.S. government's official web portal to all federal, state and local government web resources and services.